sensor_id;sensor_type;location;lat;lon;timestamp;P1;durP1;ratioP1;P2;durP2;ratioP2
12222;SDS011;6174;49.058;8.524;2023-05-07T06:01:18;2.90;;;2.60;;
12222;SDS011;6174;49.058;8.524;2023-05-07T06:03:45;4.30;;;2.40;;
12222;SDS011;6174;49.058;8.524;2023-05-07T06:06:12;2.80;;;2.50;;
12222;SDS011;6174;49.058;8.524;2023-05-07T06:08:39;3.00;;;2.67;;
12222;SDS011;6174;49.058;8.524;2023-05-07T06:11:06;2.50;;;2.30;;
12222;SDS011;6174;49.058;8.524;2023-05-07T06:13:33;3.07;;;2.60;;
12222;SDS011;6174;49.058;8.524;2023-05-07T06:16:00;2.80;;;2.60;;
12222;SDS011;6174;49.058;8.524;2023-05-07T06:18:28;2.50;;;2.30;;
12222;SDS011;6174;49.058;8.524;2023-05-07T06:20:54;2.60;;;2.40;;
12222;SDS011;6174;49.058;8.524;2023-05-07T06:23:21;2.80;;;2.30;;
12222;SDS011;6174;49.058;8.524;2023-05-07T06:25:48;2.73;;;2.53;;
12222;SDS011;6174;49.058;8.524;2023-05-07T06:28:15;2.67;;;2.47;;
12222;SDS011;6174;49.058;8.524;2023-05-07T06:30:42;2.70;;;2.50;;
12222;SDS011;6174;49.058;8.524;2023-05-07T06:33:09;2.90;;;2.40;;
12222;SDS011;6174;49.058;8.524;2023-05-07T06:35:37;2.33;;;2.13;;
12222;SDS011;6174;49.058;8.524;2023-05-07T06:38:04;2.90;;;2.17;;
12222;SDS011;6174;49.058;8.524;2023-05-07T06:40:30;2.13;;;2.03;;
12222;SDS011;6174;49.058;8.524;2023-05-07T06:42:57;2.50;;;2.30;;
12222;SDS011;6174;49.058;8.524;2023-05-07T06:45:24;2.60;;;2.40;;
12222;SDS011;6174;49.058;8.524;2023-05-07T06:47:51;2.70;;;2.40;;
12222;SDS011;6174;49.058;8.524;2023-05-07T06:50:18;2.60;;;2.40;;
12222;SDS011;6174;49.058;8.524;2023-05-07T06:52:46;4.27;;;2.43;;
12222;SDS011;6174;49.058;8.524;2023-05-07T06:55:13;3.60;;;2.30;;
12222;SDS011;6174;49.058;8.524;2023-05-07T06:57:40;2.37;;;2.17;;
12222;SDS011;6174;49.058;8.524;2023-05-07T07:00:07;2.53;;;2.33;;
12222;SDS011;6174;49.058;8.524;2023-05-07T07:02:35;2.30;;;2.10;;
12222;SDS011;6174;49.058;8.524;2023-05-07T07:05:02;2.57;;;2.30;;
12222;SDS011;6174;49.058;8.524;2023-05-07T07:07:29;2.87;;;2.30;;
12222;SDS011;6174;49.058;8.524;2023-05-07T07:09:58;2.40;;;2.30;;
12222;SDS011;6174;49.058;8.524;2023-05-07T07:12:25;3.20;;;2.50;;
12222;SDS011;6174;49.058;8.524;2023-05-07T07:14:51;2.13;;;2.03;;
12222;SDS011;6174;49.058;8.524;2023-05-07T07:17:18;2.37;;;2.20;;
12222;SDS011;6174;49.058;8.524;2023-05-07T07:19:45;2.93;;;2.27;;
12222;SDS011;6174;49.058;8.524;2023-05-07T07:22:12;3.23;;;2.17;;
12222;SDS011;6174;49.058;8.524;2023-05-07T07:24:39;2.33;;;2.10;;
12222;SDS011;6174;49.058;8.524;2023-05-07T07:27:07;2.20;;;1.97;;
12222;SDS011;6174;49.058;8.524;2023-05-07T07:29:34;2.15;;;1.95;;
12222;SDS011;6174;49.058;8.524;2023-05-07T07:32:01;2.20;;;2.00;;
12222;SDS011;6174;49.058;8.524;2023-05-07T07:34:28;3.60;;;2.30;;
12222;SDS011;6174;49.058;8.524;2023-05-07T07:36:55;2.30;;;2.10;;
12222;SDS011;6174;49.058;8.524;2023-05-07T07:39:22;2.17;;;1.97;;
12222;SDS011;6174;49.058;8.524;2023-05-07T07:41:48;2.27;;;2.07;;
12222;SDS011;6174;49.058;8.524;2023-05-07T07:44:17;2.73;;;2.20;;
12222;SDS011;6174;49.058;8.524;2023-05-07T07:46:44;2.50;;;2.17;;
12222;SDS011;6174;49.058;8.524;2023-05-07T07:49:11;2.13;;;2.00;;
12222;SDS011;6174;49.058;8.524;2023-05-07T07:51:38;2.80;;;2.33;;
12222;SDS011;6174;49.058;8.524;2023-05-07T07:54:05;1.88;;;1.77;;
12222;SDS011;6174;49.058;8.524;2023-05-07T07:56:32;2.78;;;2.00;;
12222;SDS011;6174;49.058;8.524;2023-05-07T07:58:59;1.92;;;1.83;;
12222;SDS011;6174;49.058;8.524;2023-05-07T08:01:29;2.17;;;1.97;;
12222;SDS011;6174;49.058;8.524;2023-05-07T08:03:56;2.20;;;1.93;;
12222;SDS011;6174;49.058;8.524;2023-05-07T08:06:23;3.10;;;2.00;;
12222;SDS011;6174;49.058;8.524;2023-05-07T08:08:51;2.00;;;1.90;;
12222;SDS011;6174;49.058;8.524;2023-05-07T08:11:18;2.23;;;1.90;;
12222;SDS011;6174;49.058;8.524;2023-05-07T08:13:45;2.30;;;2.10;;
12222;SDS011;6174;49.058;8.524;2023-05-07T08:16:12;4.33;;;2.20;;
12222;SDS011;6174;49.058;8.524;2023-05-07T08:18:41;3.30;;;2.10;;
12222;SDS011;6174;49.058;8.524;2023-05-07T08:21:07;1.90;;;1.80;;
12222;SDS011;6174;49.058;8.524;2023-05-07T08:23:34;2.20;;;2.00;;
12222;SDS011;6174;49.058;8.524;2023-05-07T08:26:01;2.70;;;2.30;;
12222;SDS011;6174;49.058;8.524;2023-05-07T08:28:28;2.20;;;2.10;;
12222;SDS011;6174;49.058;8.524;2023-05-07T08:30:55;2.00;;;1.90;;
12222;SDS011;6174;49.058;8.524;2023-05-07T08:33:24;2.90;;;2.07;;
12222;SDS011;6174;49.058;8.524;2023-05-07T08:35:53;2.30;;;2.10;;
12222;SDS011;6174;49.058;8.524;2023-05-07T08:38:19;2.60;;;2.40;;
12222;SDS011;6174;49.058;8.524;2023-05-07T08:40:46;2.60;;;2.40;;
12222;SDS011;6174;49.058;8.524;2023-05-07T08:43:13;3.43;;;2.40;;
12222;SDS011;6174;49.058;8.524;2023-05-07T08:45:41;2.43;;;2.20;;
12222;SDS011;6174;49.058;8.524;2023-05-07T08:48:08;2.17;;;1.97;;
12222;SDS011;6174;49.058;8.524;2023-05-07T08:50:40;2.70;;;2.33;;
12222;SDS011;6174;49.058;8.524;2023-05-07T08:53:08;2.50;;;2.30;;
12222;SDS011;6174;49.058;8.524;2023-05-07T08:55:35;3.83;;;2.40;;
12222;SDS011;6174;49.058;8.524;2023-05-07T08:58:03;3.83;;;2.43;;
12222;SDS011;6174;49.058;8.524;2023-05-07T09:00:30;3.70;;;2.60;;
12222;SDS011;6174;49.058;8.524;2023-05-07T09:02:58;3.30;;;2.30;;
12222;SDS011;6174;49.058;8.524;2023-05-07T09:05:26;3.03;;;2.70;;
12222;SDS011;6174;49.058;8.524;2023-05-07T09:07:53;3.60;;;2.53;;
12222;SDS011;6174;49.058;8.524;2023-05-07T09:10:22;2.80;;;2.30;;
12222;SDS011;6174;49.058;8.524;2023-05-07T09:12:51;2.53;;;2.33;;
12222;SDS011;6174;49.058;8.524;2023-05-07T09:15:18;2.80;;;2.60;;
12222;SDS011;6174;49.058;8.524;2023-05-07T09:17:45;3.10;;;2.57;;
12222;SDS011;6174;49.058;8.524;2023-05-07T09:20:12;3.30;;;2.70;;
12222;SDS011;6174;49.058;8.524;2023-05-07T09:22:39;3.00;;;2.60;;
12222;SDS011;6174;49.058;8.524;2023-05-07T09:25:06;2.70;;;2.50;;
12222;SDS011;6174;49.058;8.524;2023-05-07T09:27:35;3.33;;;2.67;;
12222;SDS011;6174;49.058;8.524;2023-05-07T09:30:05;2.93;;;2.70;;
12222;SDS011;6174;49.058;8.524;2023-05-07T09:32:34;3.77;;;2.60;;
12222;SDS011;6174;49.058;8.524;2023-05-07T09:35:03;2.70;;;2.50;;
12222;SDS011;6174;49.058;8.524;2023-05-07T09:37:30;2.80;;;2.53;;
12222;SDS011;6174;49.058;8.524;2023-05-07T09:39:57;3.40;;;2.33;;
12222;SDS011;6174;49.058;8.524;2023-05-07T09:42:24;2.90;;;2.70;;
12222;SDS011;6174;49.058;8.524;2023-05-07T09:44:53;4.77;;;2.70;;
12222;SDS011;6174;49.058;8.524;2023-05-07T09:47:20;2.53;;;2.30;;
12222;SDS011;6174;49.058;8.524;2023-05-07T09:49:50;2.53;;;2.27;;
12222;SDS011;6174;49.058;8.524;2023-05-07T09:52:21;2.80;;;2.60;;
12222;SDS011;6174;49.058;8.524;2023-05-07T09:54:49;2.63;;;2.40;;
12222;SDS011;6174;49.058;8.524;2023-05-07T09:57:17;2.63;;;2.30;;
12222;SDS011;6174;49.058;8.524;2023-05-07T09:59:46;3.63;;;2.33;;
12222;SDS011;6174;49.058;8.524;2023-05-07T10:02:15;3.53;;;3.17;;
12222;SDS011;6174;49.058;8.524;2023-05-07T10:04:45;2.77;;;2.57;;
12222;SDS011;6174;49.058;8.524;2023-05-07T10:07:13;2.93;;;2.53;;
12222;SDS011;6174;49.058;8.524;2023-05-07T10:09:41;3.07;;;2.20;;
12222;SDS011;6174;49.058;8.524;2023-05-07T10:12:09;2.70;;;2.50;;
12222;SDS011;6174;49.058;8.524;2023-05-07T10:14:36;2.40;;;2.20;;
12222;SDS011;6174;49.058;8.524;2023-05-07T10:17:03;2.83;;;2.40;;
12222;SDS011;6174;49.058;8.524;2023-05-07T10:19:33;2.37;;;2.27;;
12222;SDS011;6174;49.058;8.524;2023-05-07T10:22:03;2.63;;;2.43;;
12222;SDS011;6174;49.058;8.524;2023-05-07T10:24:32;3.13;;;2.83;;
12222;SDS011;6174;49.058;8.524;2023-05-07T10:27:00;2.70;;;2.50;;
12222;SDS011;6174;49.058;8.524;2023-05-07T10:29:32;2.30;;;2.10;;
12222;SDS011;6174;49.058;8.524;2023-05-07T10:32:08;2.47;;;2.27;;
12222;SDS011;6174;49.058;8.524;2023-05-07T10:34:47;2.50;;;2.30;;
12222;SDS011;6174;49.058;8.524;2023-05-07T10:37:16;2.80;;;2.60;;
12222;SDS011;6174;49.058;8.524;2023-05-07T10:39:43;3.03;;;2.70;;
12222;SDS011;6174;49.058;8.524;2023-05-07T10:42:11;3.70;;;2.77;;
12222;SDS011;6174;49.058;8.524;2023-05-07T10:44:39;2.50;;;2.30;;
12222;SDS011;6174;49.058;8.524;2023-05-07T10:47:07;4.03;;;2.80;;
12222;SDS011;6174;49.058;8.524;2023-05-07T10:49:35;2.90;;;2.60;;
12222;SDS011;6174;49.058;8.524;2023-05-07T10:52:13;2.73;;;2.53;;
12222;SDS011;6174;49.058;8.524;2023-05-07T10:54:41;2.87;;;2.50;;
12222;SDS011;6174;49.058;8.524;2023-05-07T11:00:01;2.77;;;2.57;;
12222;SDS011;6174;49.058;8.524;2023-05-07T11:03:06;2.55;;;2.35;;
12222;SDS011;6174;49.058;8.524;2023-05-07T11:05:47;4.43;;;2.80;;
12222;SDS011;6174;49.058;8.524;2023-05-07T11:14:11;2.70;;;2.50;;
12222;SDS011;6174;49.058;8.524;2023-05-07T11:16:38;2.60;;;2.40;;
12222;SDS011;6174;49.058;8.524;2023-05-07T11:19:07;2.63;;;2.42;;
12222;SDS011;6174;49.058;8.524;2023-05-07T11:21:35;2.95;;;2.75;;
12222;SDS011;6174;49.058;8.524;2023-05-07T11:24:04;2.72;;;2.53;;
12222;SDS011;6174;49.058;8.524;2023-05-07T11:26:41;3.00;;;2.38;;
12222;SDS011;6174;49.058;8.524;2023-05-07T11:29:13;2.53;;;2.30;;
12222;SDS011;6174;49.058;8.524;2023-05-07T11:31:41;2.53;;;2.30;;
12222;SDS011;6174;49.058;8.524;2023-05-07T11:34:08;2.92;;;2.40;;
12222;SDS011;6174;49.058;8.524;2023-05-07T11:36:35;2.65;;;2.45;;
12222;SDS011;6174;49.058;8.524;2023-05-07T11:41:52;2.83;;;2.60;;
12222;SDS011;6174;49.058;8.524;2023-05-07T11:44:19;2.50;;;2.30;;
12222;SDS011;6174;49.058;8.524;2023-05-07T11:46:46;3.38;;;2.50;;
12222;SDS011;6174;49.058;8.524;2023-05-07T11:49:13;2.60;;;2.40;;
12222;SDS011;6174;49.058;8.524;2023-05-07T11:51:40;3.00;;;2.70;;
12222;SDS011;6174;49.058;8.524;2023-05-07T11:54:07;2.42;;;2.22;;
12222;SDS011;6174;49.058;8.524;2023-05-07T11:56:37;2.50;;;2.30;;
12222;SDS011;6174;49.058;8.524;2023-05-07T11:59:04;2.95;;;2.40;;
12222;SDS011;6174;49.058;8.524;2023-05-07T12:01:31;2.80;;;2.60;;
12222;SDS011;6174;49.058;8.524;2023-05-07T12:03:58;2.55;;;2.30;;
12222;SDS011;6174;49.058;8.524;2023-05-07T12:06:28;2.97;;;2.50;;
12222;SDS011;6174;49.058;8.524;2023-05-07T12:08:55;2.80;;;2.50;;
12222;SDS011;6174;49.058;8.524;2023-05-07T12:11:23;3.00;;;2.70;;
12222;SDS011;6174;49.058;8.524;2023-05-07T12:13:52;2.60;;;2.40;;
12222;SDS011;6174;49.058;8.524;2023-05-07T12:16:20;2.53;;;2.25;;
12222;SDS011;6174;49.058;8.524;2023-05-07T12:18:48;3.35;;;2.47;;
12222;SDS011;6174;49.058;8.524;2023-05-07T12:21:17;2.70;;;2.50;;
12222;SDS011;6174;49.058;8.524;2023-05-07T12:23:44;2.60;;;2.38;;
12222;SDS011;6174;49.058;8.524;2023-05-07T12:26:11;2.63;;;2.42;;
12222;SDS011;6174;49.058;8.524;2023-05-07T12:28:38;2.87;;;2.57;;
12222;SDS011;6174;49.058;8.524;2023-05-07T12:31:07;2.58;;;2.38;;
12222;SDS011;6174;49.058;8.524;2023-05-07T12:33:34;3.08;;;2.80;;
12222;SDS011;6174;49.058;8.524;2023-05-07T12:36:05;2.45;;;2.25;;
12222;SDS011;6174;49.058;8.524;2023-05-07T12:38:36;4.00;;;2.30;;
12222;SDS011;6174;49.058;8.524;2023-05-07T12:41:05;3.45;;;2.50;;
12222;SDS011;6174;49.058;8.524;2023-05-07T12:43:33;2.50;;;2.30;;
12222;SDS011;6174;49.058;8.524;2023-05-07T12:46:01;2.72;;;2.45;;
12222;SDS011;6174;49.058;8.524;2023-05-07T12:48:35;3.10;;;2.80;;
12222;SDS011;6174;49.058;8.524;2023-05-07T12:51:02;2.70;;;2.50;;
12222;SDS011;6174;49.058;8.524;2023-05-07T12:53:31;2.40;;;2.20;;
12222;SDS011;6174;49.058;8.524;2023-05-07T12:55:58;2.78;;;2.40;;
12222;SDS011;6174;49.058;8.524;2023-05-07T12:58:26;2.60;;;2.33;;
12222;SDS011;6174;49.058;8.524;2023-05-07T13:00:54;3.15;;;2.47;;
12222;SDS011;6174;49.058;8.524;2023-05-07T13:03:24;2.55;;;2.45;;
12222;SDS011;6174;49.058;8.524;2023-05-07T13:05:53;2.60;;;2.28;;
12222;SDS011;6174;49.058;8.524;2023-05-07T13:08:28;4.45;;;2.80;;
12222;SDS011;6174;49.058;8.524;2023-05-07T13:10:57;2.60;;;2.40;;
12222;SDS011;6174;49.058;8.524;2023-05-07T13:13:24;2.50;;;2.30;;
12222;SDS011;6174;49.058;8.524;2023-05-07T13:15:51;2.70;;;2.50;;
12222;SDS011;6174;49.058;8.524;2023-05-07T13:18:18;4.18;;;3.88;;
12222;SDS011;6174;49.058;8.524;2023-05-07T13:20:44;2.40;;;2.20;;
12222;SDS011;6174;49.058;8.524;2023-05-07T13:23:13;2.50;;;2.30;;
12222;SDS011;6174;49.058;8.524;2023-05-07T13:25:39;2.30;;;2.20;;
12222;SDS011;6174;49.058;8.524;2023-05-07T13:28:06;2.75;;;2.55;;
12222;SDS011;6174;49.058;8.524;2023-05-07T13:30:33;2.30;;;2.10;;
12222;SDS011;6174;49.058;8.524;2023-05-07T13:33:00;3.15;;;2.50;;
12222;SDS011;6174;49.058;8.524;2023-05-07T13:35:27;2.25;;;2.05;;
12222;SDS011;6174;49.058;8.524;2023-05-07T13:37:54;2.60;;;2.40;;
12222;SDS011;6174;49.058;8.524;2023-05-07T13:40:22;1.92;;;1.58;;
12222;SDS011;6174;49.058;8.524;2023-05-07T13:42:49;1.40;;;1.30;;
12222;SDS011;6174;49.058;8.524;2023-05-07T13:45:16;4.32;;;1.30;;
12222;SDS011;6174;49.058;8.524;2023-05-07T13:47:43;2.97;;;1.50;;
12222;SDS011;6174;49.058;8.524;2023-05-07T13:50:11;1.30;;;1.20;;
12222;SDS011;6174;49.058;8.524;2023-05-07T13:52:40;2.43;;;1.50;;
12222;SDS011;6174;49.058;8.524;2023-05-07T13:55:08;3.30;;;1.63;;
12222;SDS011;6174;49.058;8.524;2023-05-07T13:57:37;3.03;;;1.57;;
12222;SDS011;6174;49.058;8.524;2023-05-07T14:00:04;2.90;;;1.40;;
12222;SDS011;6174;49.058;8.524;2023-05-07T14:02:32;2.43;;;1.37;;
12222;SDS011;6174;49.058;8.524;2023-05-07T14:04:59;1.90;;;1.20;;
12222;SDS011;6174;49.058;8.524;2023-05-07T14:07:25;1.50;;;1.33;;
12222;SDS011;6174;49.058;8.524;2023-05-07T14:09:53;3.90;;;1.50;;
12222;SDS011;6174;49.058;8.524;2023-05-07T14:12:20;1.90;;;1.43;;
12222;SDS011;6174;49.058;8.524;2023-05-07T14:14:48;1.53;;;1.20;;
12222;SDS011;6174;49.058;8.524;2023-05-07T14:17:16;4.07;;;1.40;;
12222;SDS011;6174;49.058;8.524;2023-05-07T14:19:43;1.20;;;1.10;;
12222;SDS011;6174;49.058;8.524;2023-05-07T14:22:10;2.10;;;1.60;;
12222;SDS011;6174;49.058;8.524;2023-05-07T14:24:38;3.53;;;1.70;;
12222;SDS011;6174;49.058;8.524;2023-05-07T14:27:05;3.17;;;1.70;;
12222;SDS011;6174;49.058;8.524;2023-05-07T14:29:32;2.57;;;1.63;;
12222;SDS011;6174;49.058;8.524;2023-05-07T14:32:01;2.90;;;1.50;;
12222;SDS011;6174;49.058;8.524;2023-05-07T14:34:29;3.03;;;1.50;;
12222;SDS011;6174;49.058;8.524;2023-05-07T14:36:56;2.73;;;1.80;;
12222;SDS011;6174;49.058;8.524;2023-05-07T14:39:22;3.73;;;2.07;;
12222;SDS011;6174;49.058;8.524;2023-05-07T14:41:50;2.43;;;1.80;;
12222;SDS011;6174;49.058;8.524;2023-05-07T14:44:19;2.63;;;1.80;;
12222;SDS011;6174;49.058;8.524;2023-05-07T14:46:46;2.90;;;1.63;;
12222;SDS011;6174;49.058;8.524;2023-05-07T14:49:14;2.10;;;1.90;;
12222;SDS011;6174;49.058;8.524;2023-05-07T14:51:42;6.23;;;2.20;;
12222;SDS011;6174;49.058;8.524;2023-05-07T14:54:10;3.50;;;1.90;;
12222;SDS011;6174;49.058;8.524;2023-05-07T14:56:37;3.27;;;2.10;;
12222;SDS011;6174;49.058;8.524;2023-05-07T14:59:04;3.07;;;2.10;;
12222;SDS011;6174;49.058;8.524;2023-05-07T15:01:31;1.93;;;1.83;;
12222;SDS011;6174;49.058;8.524;2023-05-07T15:03:57;2.00;;;1.80;;
12222;SDS011;6174;49.058;8.524;2023-05-07T15:06:26;2.33;;;2.00;;
12222;SDS011;6174;49.058;8.524;2023-05-07T15:08:54;2.77;;;2.43;;
12222;SDS011;6174;49.058;8.524;2023-05-07T15:11:21;1.70;;;1.60;;
12222;SDS011;6174;49.058;8.524;2023-05-07T15:13:48;2.17;;;1.80;;
12222;SDS011;6174;49.058;8.524;2023-05-07T15:16:15;3.43;;;1.90;;
12222;SDS011;6174;49.058;8.524;2023-05-07T15:18:42;2.00;;;1.80;;
12222;SDS011;6174;49.058;8.524;2023-05-07T15:21:09;2.00;;;1.80;;
12222;SDS011;6174;49.058;8.524;2023-05-07T15:23:37;2.33;;;1.70;;
12222;SDS011;6174;49.058;8.524;2023-05-07T15:26:06;3.20;;;1.60;;
12222;SDS011;6174;49.058;8.524;2023-05-07T15:28:33;1.80;;;1.70;;
12222;SDS011;6174;49.058;8.524;2023-05-07T15:31:00;2.20;;;1.73;;
12222;SDS011;6174;49.058;8.524;2023-05-07T15:33:27;1.83;;;1.60;;
12222;SDS011;6174;49.058;8.524;2023-05-07T15:35:53;2.47;;;1.60;;
12222;SDS011;6174;49.058;8.524;2023-05-07T15:38:23;1.77;;;1.60;;
12222;SDS011;6174;49.058;8.524;2023-05-07T15:40:52;2.60;;;1.90;;
12222;SDS011;6174;49.058;8.524;2023-05-07T15:43:19;3.10;;;2.00;;
12222;SDS011;6174;49.058;8.524;2023-05-07T15:45:46;2.20;;;1.80;;
12222;SDS011;6174;49.058;8.524;2023-05-07T15:48:13;1.70;;;1.60;;
12222;SDS011;6174;49.058;8.524;2023-05-07T15:50:40;2.03;;;1.80;;
12222;SDS011;6174;49.058;8.524;2023-05-07T15:53:07;2.70;;;1.80;;
12222;SDS011;6174;49.058;8.524;2023-05-07T15:55:34;3.50;;;2.03;;
12222;SDS011;6174;49.058;8.524;2023-05-07T15:58:02;1.40;;;1.30;;
12222;SDS011;6174;49.058;8.524;2023-05-07T16:00:30;3.57;;;1.77;;
12222;SDS011;6174;49.058;8.524;2023-05-07T16:03:00;1.60;;;1.50;;
12222;SDS011;6174;49.058;8.524;2023-05-07T16:05:27;1.70;;;1.60;;
12222;SDS011;6174;49.058;8.524;2023-05-07T16:07:53;2.23;;;1.47;;
12222;SDS011;6174;49.058;8.524;2023-05-07T16:10:22;2.67;;;1.47;;
12222;SDS011;6174;49.058;8.524;2023-05-07T16:12:48;2.77;;;1.80;;
12222;SDS011;6174;49.058;8.524;2023-05-07T16:15:16;2.20;;;2.00;;
12222;SDS011;6174;49.058;8.524;2023-05-07T16:17:44;3.10;;;1.80;;
12222;SDS011;6174;49.058;8.524;2023-05-07T16:20:12;2.23;;;2.03;;
12222;SDS011;6174;49.058;8.524;2023-05-07T16:22:39;2.23;;;1.93;;
12222;SDS011;6174;49.058;8.524;2023-05-07T16:25:06;2.43;;;1.90;;
12222;SDS011;6174;49.058;8.524;2023-05-07T16:27:34;2.63;;;2.10;;
12222;SDS011;6174;49.058;8.524;2023-05-07T16:30:00;3.17;;;1.90;;
12222;SDS011;6174;49.058;8.524;2023-05-07T16:32:29;3.20;;;1.80;;
12222;SDS011;6174;49.058;8.524;2023-05-07T16:34:55;1.90;;;1.80;;
12222;SDS011;6174;49.058;8.524;2023-05-07T16:37:22;1.60;;;1.50;;
12222;SDS011;6174;49.058;8.524;2023-05-07T16:39:49;1.80;;;1.70;;
12222;SDS011;6174;49.058;8.524;2023-05-07T16:42:16;2.80;;;1.90;;
12222;SDS011;6174;49.058;8.524;2023-05-07T16:44:42;2.40;;;1.80;;
12222;SDS011;6174;49.058;8.524;2023-05-07T16:47:09;4.70;;;2.17;;
12222;SDS011;6174;49.058;8.524;2023-05-07T16:49:37;2.67;;;2.27;;
12222;SDS011;6174;49.058;8.524;2023-05-07T16:52:04;1.97;;;1.87;;
12222;SDS011;6174;49.058;8.524;2023-05-07T16:54:31;2.90;;;2.17;;
12222;SDS011;6174;49.058;8.524;2023-05-07T16:56:58;2.20;;;2.00;;
12222;SDS011;6174;49.058;8.524;2023-05-07T16:59:24;2.27;;;2.07;;
12222;SDS011;6174;49.058;8.524;2023-05-07T17:01:55;2.70;;;2.03;;
12222;SDS011;6174;49.058;8.524;2023-05-07T17:04:22;1.90;;;1.80;;
12222;SDS011;6174;49.058;8.524;2023-05-07T17:06:50;1.90;;;1.60;;
12222;SDS011;6174;49.058;8.524;2023-05-07T17:09:17;1.77;;;1.60;;
12222;SDS011;6174;49.058;8.524;2023-05-07T17:11:44;1.80;;;1.70;;
12222;SDS011;6174;49.058;8.524;2023-05-07T17:14:11;2.40;;;1.90;;
12222;SDS011;6174;49.058;8.524;2023-05-07T17:16:37;1.80;;;1.70;;
12222;SDS011;6174;49.058;8.524;2023-05-07T17:19:04;3.17;;;1.80;;
12222;SDS011;6174;49.058;8.524;2023-05-07T17:21:31;2.53;;;1.70;;
12222;SDS011;6174;49.058;8.524;2023-05-07T17:23:59;1.83;;;1.73;;
12222;SDS011;6174;49.058;8.524;2023-05-07T17:26:26;1.93;;;1.77;;
12222;SDS011;6174;49.058;8.524;2023-05-07T17:28:53;1.90;;;1.80;;
12222;SDS011;6174;49.058;8.524;2023-05-07T17:31:19;2.07;;;1.97;;
12222;SDS011;6174;49.058;8.524;2023-05-07T17:33:46;2.27;;;1.83;;
12222;SDS011;6174;49.058;8.524;2023-05-07T17:36:13;2.67;;;1.70;;
12222;SDS011;6174;49.058;8.524;2023-05-07T17:38:40;2.53;;;2.00;;
12222;SDS011;6174;49.058;8.524;2023-05-07T17:41:08;3.13;;;2.27;;
12222;SDS011;6174;49.058;8.524;2023-05-07T17:43:34;2.10;;;1.90;;
12222;SDS011;6174;49.058;8.524;2023-05-07T17:46:01;2.20;;;2.10;;
12222;SDS011;6174;49.058;8.524;2023-05-07T17:48:28;2.10;;;1.90;;
12222;SDS011;6174;49.058;8.524;2023-05-07T17:50:59;2.47;;;2.10;;
12222;SDS011;6174;49.058;8.524;2023-05-07T17:53:26;2.07;;;1.87;;
12222;SDS011;6174;49.058;8.524;2023-05-07T17:55:56;2.40;;;1.77;;
12222;SDS011;6174;49.058;8.524;2023-05-07T17:58:24;2.90;;;2.30;;
12222;SDS011;6174;49.058;8.524;2023-05-07T18:00:52;2.30;;;2.10;;
12222;SDS011;6174;49.058;8.524;2023-05-07T18:03:19;3.03;;;1.80;;
12222;SDS011;6174;49.058;8.524;2023-05-07T18:05:45;2.90;;;2.40;;
12222;SDS011;6174;49.058;8.524;2023-05-07T18:08:12;2.27;;;2.07;;
12222;SDS011;6174;49.058;8.524;2023-05-07T18:10:39;2.60;;;2.30;;
12222;SDS011;6174;49.058;8.524;2023-05-07T18:13:05;2.90;;;2.27;;
12222;SDS011;6174;49.058;8.524;2023-05-07T18:15:34;2.63;;;2.40;;
12222;SDS011;6174;49.058;8.524;2023-05-07T18:18:00;4.00;;;2.40;;
12222;SDS011;6174;49.058;8.524;2023-05-07T18:20:27;3.37;;;2.47;;
12222;SDS011;6174;49.058;8.524;2023-05-07T18:22:54;4.20;;;2.33;;
12222;SDS011;6174;49.058;8.524;2023-05-07T18:25:21;3.17;;;2.50;;
12222;SDS011;6174;49.058;8.524;2023-05-07T18:27:47;2.60;;;2.40;;
12222;SDS011;6174;49.058;8.524;2023-05-07T18:30:14;3.80;;;2.33;;
12222;SDS011;6174;49.058;8.524;2023-05-07T18:32:42;2.60;;;2.40;;
12222;SDS011;6174;49.058;8.524;2023-05-07T18:35:09;2.87;;;2.40;;
12222;SDS011;6174;49.058;8.524;2023-05-07T18:37:36;2.57;;;2.37;;
12222;SDS011;6174;49.058;8.524;2023-05-07T18:40:03;3.27;;;2.43;;
12222;SDS011;6174;49.058;8.524;2023-05-07T18:42:30;3.00;;;2.70;;
12222;SDS011;6174;49.058;8.524;2023-05-07T18:44:57;3.63;;;2.80;;
12222;SDS011;6174;49.058;8.524;2023-05-07T18:47:24;3.30;;;2.43;;
12222;SDS011;6174;49.058;8.524;2023-05-07T18:49:52;2.90;;;2.60;;
12222;SDS011;6174;49.058;8.524;2023-05-07T18:52:18;3.40;;;2.73;;
12222;SDS011;6174;49.058;8.524;2023-05-07T18:54:46;3.73;;;2.60;;
12222;SDS011;6174;49.058;8.524;2023-05-07T18:57:12;2.47;;;2.23;;
12222;SDS011;6174;49.058;8.524;2023-05-07T18:59:40;2.90;;;2.60;;
12222;SDS011;6174;49.058;8.524;2023-05-07T19:02:07;2.80;;;2.50;;
12222;SDS011;6174;49.058;8.524;2023-05-07T19:04:34;3.53;;;2.63;;
12222;SDS011;6174;49.058;8.524;2023-05-07T19:07:02;5.67;;;2.87;;
12222;SDS011;6174;49.058;8.524;2023-05-07T19:09:29;3.87;;;2.27;;
12222;SDS011;6174;49.058;8.524;2023-05-07T19:11:56;4.00;;;2.27;;
12222;SDS011;6174;49.058;8.524;2023-05-07T19:14:23;2.67;;;2.47;;
12222;SDS011;6174;49.058;8.524;2023-05-07T19:16:50;4.17;;;2.43;;
12222;SDS011;6174;49.058;8.524;2023-05-07T19:19:16;2.57;;;2.20;;
12222;SDS011;6174;49.058;8.524;2023-05-07T19:21:43;2.57;;;2.37;;
12222;SDS011;6174;49.058;8.524;2023-05-07T19:24:11;2.83;;;2.27;;
12222;SDS011;6174;49.058;8.524;2023-05-07T19:26:38;2.60;;;2.40;;
12222;SDS011;6174;49.058;8.524;2023-05-07T19:29:05;2.90;;;2.40;;
12222;SDS011;6174;49.058;8.524;2023-05-07T19:31:32;2.90;;;2.50;;
12222;SDS011;6174;49.058;8.524;2023-05-07T19:33:59;3.30;;;2.70;;
12222;SDS011;6174;49.058;8.524;2023-05-07T19:36:25;2.70;;;2.50;;
12222;SDS011;6174;49.058;8.524;2023-05-07T19:38:52;3.20;;;2.90;;
12222;SDS011;6174;49.058;8.524;2023-05-07T19:41:20;2.67;;;2.33;;
12222;SDS011;6174;49.058;8.524;2023-05-07T19:43:47;2.83;;;2.63;;
12222;SDS011;6174;49.058;8.524;2023-05-07T19:46:14;2.83;;;2.43;;
12222;SDS011;6174;49.058;8.524;2023-05-07T19:48:41;3.20;;;2.90;;
12222;SDS011;6174;49.058;8.524;2023-05-07T19:51:08;3.23;;;2.93;;
12222;SDS011;6174;49.058;8.524;2023-05-07T19:53:35;3.03;;;2.80;;
12222;SDS011;6174;49.058;8.524;2023-05-07T19:56:02;3.10;;;2.77;;
12222;SDS011;6174;49.058;8.524;2023-05-07T19:58:31;2.97;;;2.77;;
12222;SDS011;6174;49.058;8.524;2023-05-07T20:00:58;4.30;;;2.90;;
12222;SDS011;6174;49.058;8.524;2023-05-07T20:03:25;2.90;;;2.60;;
12222;SDS011;6174;49.058;8.524;2023-05-07T20:05:52;3.90;;;3.30;;
12222;SDS011;6174;49.058;8.524;2023-05-07T20:08:19;2.97;;;2.77;;
12222;SDS011;6174;49.058;8.524;2023-05-07T20:10:46;3.40;;;3.10;;
12222;SDS011;6174;49.058;8.524;2023-05-07T20:13:13;4.13;;;2.77;;
12222;SDS011;6174;49.058;8.524;2023-05-07T20:15:41;3.70;;;2.90;;
12222;SDS011;6174;49.058;8.524;2023-05-07T20:18:08;3.20;;;2.83;;
12222;SDS011;6174;49.058;8.524;2023-05-07T20:20:35;3.87;;;3.07;;
12222;SDS011;6174;49.058;8.524;2023-05-07T20:23:02;2.97;;;2.70;;
12222;SDS011;6174;49.058;8.524;2023-05-07T20:25:29;3.37;;;3.07;;
12222;SDS011;6174;49.058;8.524;2023-05-07T20:27:55;3.30;;;2.97;;
12222;SDS011;6174;49.058;8.524;2023-05-07T20:30:22;3.37;;;3.07;;
12222;SDS011;6174;49.058;8.524;2023-05-07T20:32:50;4.40;;;3.20;;
12222;SDS011;6174;49.058;8.524;2023-05-07T20:35:17;3.50;;;2.80;;
12222;SDS011;6174;49.058;8.524;2023-05-07T20:37:44;3.13;;;2.93;;
12222;SDS011;6174;49.058;8.524;2023-05-07T20:40:11;3.70;;;2.70;;
12222;SDS011;6174;49.058;8.524;2023-05-07T20:42:38;2.97;;;2.77;;
12222;SDS011;6174;49.058;8.524;2023-05-07T20:45:05;3.70;;;2.77;;
12222;SDS011;6174;49.058;8.524;2023-05-07T20:47:32;4.03;;;2.80;;
12222;SDS011;6174;49.058;8.524;2023-05-07T20:50:00;3.17;;;2.87;;
12222;SDS011;6174;49.058;8.524;2023-05-07T20:52:27;3.40;;;2.90;;
12222;SDS011;6174;49.058;8.524;2023-05-07T20:54:54;3.20;;;2.90;;
12222;SDS011;6174;49.058;8.524;2023-05-07T20:57:20;4.43;;;3.10;;
12222;SDS011;6174;49.058;8.524;2023-05-07T20:59:47;3.50;;;3.17;;
12222;SDS011;6174;49.058;8.524;2023-05-07T21:02:14;3.43;;;3.10;;
12222;SDS011;6174;49.058;8.524;2023-05-07T21:04:41;3.00;;;2.80;;
12222;SDS011;6174;49.058;8.524;2023-05-07T21:07:09;3.60;;;3.30;;
12222;SDS011;6174;49.058;8.524;2023-05-07T21:09:35;3.00;;;2.80;;
12222;SDS011;6174;49.058;8.524;2023-05-07T21:12:02;4.23;;;2.80;;
12222;SDS011;6174;49.058;8.524;2023-05-07T21:14:29;3.40;;;3.17;;